Lady Lara — ZGEZ3 — position and weather

sailwx.info

Track history (hours):
 
Tides and Currents Weather Stations Pressure Air Temp Water Temp Dewpoint Dewpoint Depression Visibility Wind Speed Wind Dir Waves Ship Positions

Lady Lara

Last reported at 2017-Sep-28 04:03 UTC. Time now 2017-Oct-18 09:41 UTC.
Position N 41°02' E 002°10'.
Warning: this ship's position is 20 days out of date.

Length 91 m; draft 4 m.

Type: Pleasure craft. MMSI: 319082300.

Date/timePositionNaut miles runAvg speedWind from/ knotsBaromVisibWave heightAir tempDewpointWater temp
2017-Sep-28 04:03N 41°02' E 002°10'111.5
2017-Sep-28 03:57N 41°01' E 002°09'511.4
2017-Sep-28 03:30N 40°56' E 002°08'611.7
2017-Sep-28 03:00N 40°50' E 002°07'611.6
2017-Sep-28 02:30N 40°44' E 002°05'612.2
2017-Sep-28 02:00N 40°38' E 002°04'612.7
2017-Sep-28 01:30N 40°32' E 002°02'612.8
2017-Sep-28 01:00N 40°26' E 002°01'612.8
2017-Sep-28 00:30N 40°19' E 001°59'612.4
2017-Sep-28 00:00N 40°13' E 001°58'612.3
2017-Sep-27 23:30N 40°07' E 001°56'612.4
2017-Sep-27 23:00N 40°01' E 001°55'612.7
2017-Sep-27 22:30N 39°55' E 001°53'612.5
2017-Sep-27 22:00N 39°49' E 001°52'612.3
2017-Sep-27 21:30N 39°42' E 001°50'612.5
2017-Sep-27 20:59N 39°36' E 001°49'612.5
2017-Sep-27 20:30N 39°30' E 001°47'712.4
2017-Sep-27 19:54N 39°23' E 001°46'512.6
2017-Sep-27 19:29N 39°18' E 001°45'612.6
2017-Sep-27 19:00N 39°12' E 001°43'612.6
2017-Sep-27 18:30N 39°06' E 001°42'612.1
2017-Sep-27 18:00N 38°60' E 001°39'612.6
2017-Sep-27 17:30N 38°56' E 001°33'5 9.6
2017-Sep-27 17:00N 38°54' E 001°27'0 0.8
2017-Sep-27 16:29N 38°55' E 001°26'0 0.0
2017-Sep-27 15:59N 38°55' E 001°26'0 0.0
2017-Sep-27 15:26N 38°55' E 001°26'0 0.0
2017-Sep-27 14:59N 38°55' E 001°26'0 0.0
2017-Sep-27 14:26N 38°55' E 001°26'0 0.0
2017-Sep-27 13:47N 38°55' E 001°26'0 0.0
2017-Sep-27 13:29N 38°55' E 001°26'0 0.0
2017-Sep-27 12:59N 38°55' E 001°26'0 0.0
2017-Sep-27 12:26N 38°55' E 001°26'0 0.0
2017-Sep-27 11:59N 38°55' E 001°26'0 0.0
2017-Sep-27 11:29N 38°55' E 001°26'0 0.0
2017-Sep-27 10:59N 38°55' E 001°26'0 0.0
2017-Sep-27 10:29N 38°55' E 001°26'0 0.0
2017-Sep-27 09:59N 38°55' E 001°26'0 0.0
2017-Sep-27 09:26N 38°55' E 001°26'0 0.0
2017-Sep-27 08:56N 38°55' E 001°26'0 0.0
2017-Sep-27 08:29N 38°55' E 001°26'0 0.0
2017-Sep-27 07:56N 38°55' E 001°26'0 0.0
2017-Sep-27 07:29N 38°55' E 001°26'0 0.0
2017-Sep-27 06:59N 38°55' E 001°26'0 0.0
2017-Sep-27 06:26N 38°55' E 001°26'0 0.0
2017-Sep-27 05:56N 38°55' E 001°26'0 0.0
2017-Sep-27 05:29N 38°55' E 001°26'0 0.0
2017-Sep-27 04:56N 38°55' E 001°26'0 0.0
2017-Sep-27 04:29N 38°55' E 001°26'0 0.0
2017-Sep-27 03:59N 38°55' E 001°26'0 0.0
2017-Sep-27 03:26N 38°55' E 001°26'0 0.0
2017-Sep-27 02:59N 38°55' E 001°26'0 0.0
2017-Sep-27 02:29N 38°55' E 001°26'0 0.0
2017-Sep-27 01:59N 38°55' E 001°26'0 0.0
2017-Sep-27 01:29N 38°55' E 001°26'0 0.0
2017-Sep-27 00:56N 38°55' E 001°26'0 0.0
2017-Sep-27 00:26N 38°55' E 001°26'0 0.0
2017-Sep-26 23:59N 38°55' E 001°26'0 0.0
2017-Sep-26 23:29N 38°55' E 001°26'0 0.0
2017-Sep-26 22:56N 38°55' E 001°26'0 0.0
2017-Sep-26 22:29N 38°55' E 001°26'0 0.0
2017-Sep-26 21:59N 38°55' E 001°26'0 0.0
2017-Sep-26 21:29N 38°55' E 001°26'0 0.1
2017-Sep-26 20:59N 38°55' E 001°26'2 4.5
2017-Sep-26 20:30N 38°53' E 001°27'8 2.9
2017-Sep-26 17:55N 38°45' E 001°26'0 0.0
2017-Sep-26 11:38N 38°45' E 001°26'0 0.2
2017-Sep-26 11:20N 38°45' E 001°26'4 7.9
2017-Sep-26 10:50N 38°49' E 001°26'512.3
2017-Sep-26 10:27N 38°53' E 001°28'2 3.6
2017-Sep-26 09:59N 38°55' E 001°26'0 0.0
2017-Sep-26 09:29N 38°55' E 001°26'0 0.0
2017-Sep-26 08:53N 38°55' E 001°26'0 0.0
2017-Sep-26 08:29N 38°55' E 001°26'0 0.0
2017-Sep-26 07:59N 38°55' E 001°26'0 0.0
2017-Sep-26 07:29N 38°55' E 001°26'0 0.0
2017-Sep-26 06:59N 38°55' E 001°26'0 0.0
2017-Sep-26 06:26N 38°55' E 001°26'0 0.0
2017-Sep-26 05:59N 38°55' E 001°26'0 0.0
2017-Sep-26 05:29N 38°55' E 001°26'0 0.0
2017-Sep-26 04:59N 38°55' E 001°26'0 0.0
2017-Sep-26 04:29N 38°55' E 001°26'0 0.0
2017-Sep-26 03:59N 38°55' E 001°26'0 0.0
2017-Sep-26 03:29N 38°55' E 001°26'0 0.0
2017-Sep-26 02:56N 38°55' E 001°26'0 0.0
2017-Sep-26 02:23N 38°55' E 001°26'0 0.0
2017-Sep-26 01:59N 38°55' E 001°26'0 0.0
2017-Sep-26 01:29N 38°55' E 001°26'0 0.0
2017-Sep-26 00:56N 38°55' E 001°26'0 0.0
2017-Sep-26 00:29N 38°55' E 001°26'0 0.0
2017-Sep-25 23:59N 38°55' E 001°26'0 0.0
2017-Sep-25 23:29N 38°55' E 001°26'0 0.0
2017-Sep-25 22:59N 38°55' E 001°26'0 0.0
2017-Sep-25 22:23N 38°55' E 001°26'0 0.0
2017-Sep-25 21:59N 38°55' E 001°26'0 0.0
2017-Sep-25 21:29N 38°55' E 001°26'0 0.0
2017-Sep-25 20:59N 38°55' E 001°26'0 0.0
2017-Sep-25 20:29N 38°55' E 001°26'0 0.0
2017-Sep-25 19:59N 38°55' E 001°26'0 0.0
2017-Sep-25 19:29N 38°55' E 001°26'0 0.0
2017-Sep-25 18:59N 38°55' E 001°26'0 0.0
2017-Sep-25 18:29N 38°55' E 001°26'0 0.0
2017-Sep-25 17:59N 38°55' E 001°26'0 0.0
2017-Sep-25 17:23N 38°55' E 001°26'0 0.0
2017-Sep-25 16:59N 38°55' E 001°26'0 0.0
2017-Sep-25 16:23N 38°55' E 001°26'0 0.0
2017-Sep-25 15:59N 38°55' E 001°26'0 0.0
2017-Sep-25 12:29N 38°55' E 001°26'0 0.0
2017-Sep-25 11:59N 38°55' E 001°26'0 0.0
2017-Sep-25 11:29N 38°55' E 001°26'0 0.0
2017-Sep-25 10:59N 38°55' E 001°26'0 0.0
2017-Sep-25 10:29N 38°55' E 001°26'0 0.0
2017-Sep-25 10:00N 38°55' E 001°26'0 0.6
2017-Sep-25 09:30N 38°55' E 001°27'510.5
2017-Sep-25 09:00N 38°49' E 001°26'612.0
2017-Sep-25 08:30N 38°51' E 001°18'1 1.3
2017-Sep-25 07:52N 38°52' E 001°19'0 0.0
2017-Sep-25 07:28N 38°52' E 001°19'0 0.0
2017-Sep-25 06:10N 38°52' E 001°19'0 0.0
2017-Sep-25 05:52N 38°52' E 001°19'0 0.0
2017-Sep-25 03:16N 38°52' E 001°19'0 0.0
2017-Sep-25 02:52N 38°52' E 001°19'0 0.0
2017-Sep-24 18:04N 38°52' E 001°19'0 0.5
2017-Sep-24 18:00N 38°52' E 001°19'3 6.8
2017-Sep-24 17:29N 38°49' E 001°22'1 2.1
2017-Sep-24 17:00N 38°50' E 001°23'0 0.0
2017-Sep-24 16:30N 38°50' E 001°23'0 0.0
2017-Sep-24 16:00N 38°50' E 001°23'0 0.0
2017-Sep-24 15:30N 38°50' E 001°23'0 0.0
2017-Sep-24 15:01N 38°50' E 001°23'0 0.0
2017-Sep-24 14:30N 38°50' E 001°23'0 0.0
2017-Sep-24 13:58N 38°50' E 001°23'0 0.0
2017-Sep-24 13:29N 38°50' E 001°23'0 0.0
2017-Sep-24 13:01N 38°50' E 001°23'0 0.0
2017-Sep-24 12:30N 38°50' E 001°23'0 0.0
2017-Sep-24 12:01N 38°50' E 001°23'0 0.0
2017-Sep-24 11:30N 38°50' E 001°23'0 0.0
2017-Sep-24 11:01N 38°50' E 001°23'0 0.0
2017-Sep-24 10:30N 38°50' E 001°23'0 0.0
2017-Sep-24 10:00N 38°50' E 001°23'0 0.0
2017-Sep-24 09:31N 38°50' E 001°23'0 0.0
2017-Sep-24 09:00N 38°50' E 001°23'2 4.3
2017-Sep-24 08:30N 38°49' E 001°25'510.3
2017-Sep-24 08:00N 38°54' E 001°27'1 1.7
2017-Sep-24 07:28N 38°55' E 001°26'0 0.0
2017-Sep-24 06:55N 38°55' E 001°26'0 0.0
2017-Sep-24 06:28N 38°55' E 001°26'0 0.0
2017-Sep-24 05:58N 38°55' E 001°26'0 0.0
2017-Sep-24 05:28N 38°55' E 001°26'0 0.0
2017-Sep-24 04:55N 38°55' E 001°26'0 0.0
2017-Sep-24 04:25N 38°55' E 001°26'0 0.0
2017-Sep-24 03:58N 38°55' E 001°26'0 0.0
2017-Sep-24 03:28N 38°55' E 001°26'0 0.0
2017-Sep-24 02:58N 38°55' E 001°26'0 0.0
2017-Sep-24 02:28N 38°55' E 001°26'0 0.0
2017-Sep-24 01:58N 38°55' E 001°26'0 0.0
2017-Sep-24 01:28N 38°55' E 001°26'0 0.0
2017-Sep-24 00:58N 38°55' E 001°26'0 0.0
2017-Sep-24 00:28N 38°55' E 001°26'0 0.0
2017-Sep-23 23:55N 38°55' E 001°26'0 0.0
2017-Sep-23 23:22N 38°55' E 001°26'0 0.0
2017-Sep-23 22:58N 38°55' E 001°26'0 0.0
2017-Sep-23 22:28N 38°55' E 001°26'0 0.0
2017-Sep-23 21:58N 38°55' E 001°26'0 0.0
2017-Sep-23 21:28N 38°55' E 001°26'0 0.0
2017-Sep-23 20:55N 38°55' E 001°26'0 0.0
2017-Sep-23 20:28N 38°55' E 001°26'0 0.0
2017-Sep-23 19:58N 38°55' E 001°26'0 0.0
2017-Sep-22 01:46N 38°55' E 001°26'0 0.0
2017-Sep-22 01:25N 38°55' E 001°26'0 0.0
2017-Sep-22 00:58N 38°55' E 001°26'0 0.0
2017-Sep-22 00:28N 38°55' E 001°26'0 0.0
2017-Sep-21 23:55N 38°55' E 001°26'0 0.0
2017-Sep-21 23:28N 38°55' E 001°26'0 0.0
2017-Sep-21 22:55N 38°55' E 001°26'0 0.0
2017-Sep-21 22:28N 38°55' E 001°26'0 0.0
2017-Sep-21 21:58N 38°55' E 001°26'0 0.0
2017-Sep-21 21:28N 38°55' E 001°26'0 0.0
2017-Sep-21 20:55N 38°55' E 001°26'0 0.0
2017-Sep-21 20:22N 38°55' E 001°26'0 0.0
2017-Sep-21 19:52N 38°55' E 001°26'0 0.0
2017-Sep-21 19:28N 38°55' E 001°26'0 0.0
2017-Sep-21 18:58N 38°55' E 001°26'0 0.0
2017-Sep-21 18:25N 38°55' E 001°26'0 0.0
2017-Sep-21 17:58N 38°55' E 001°26'0 0.0
2017-Sep-21 17:28N 38°55' E 001°26'0 0.0
2017-Sep-21 16:58N 38°55' E 001°26'0 0.0
2017-Sep-21 16:28N 38°55' E 001°26'0 0.0
2017-Sep-21 15:58N 38°55' E 001°26'0 0.0
2017-Sep-21 15:28N 38°55' E 001°26'0 0.0
2017-Sep-21 14:58N 38°55' E 001°26'0 0.0
2017-Sep-21 14:28N 38°55' E 001°26'0 0.0
2017-Sep-21 13:58N 38°55' E 001°26'0 0.0
2017-Sep-21 13:25N 38°55' E 001°26'0 0.0
2017-Sep-21 12:58N 38°55' E 001°26'0 0.0
2017-Sep-21 12:28N 38°55' E 001°26'0 0.0
2017-Sep-21 11:55N 38°55' E 001°26'0 0.0
2017-Sep-21 11:28N 38°55' E 001°26'0 0.0
2017-Sep-21 10:49N 38°55' E 001°26'0 0.0
2017-Sep-21 10:28N 38°55' E 001°26'0 0.0
2017-Sep-21 09:58N 38°55' E 001°26'0 0.0
2017-Sep-21 09:25N 38°55' E 001°26'0 0.0
2017-Sep-21 08:55N 38°55' E 001°26'0 0.0
2017-Sep-21 08:28N 38°55' E 001°26'0 0.0
2017-Sep-21 07:58N 38°55' E 001°26'0 0.0
2017-Sep-21 07:28N 38°55' E 001°26'0 0.0
2017-Sep-21 06:43N 38°55' E 001°26'0 0.0
2017-Sep-21 06:25N 38°55' E 001°26'0 0.0
2017-Sep-21 05:58N 38°55' E 001°26'0 0.0
2017-Sep-21 05:22N 38°55' E 001°26'0 0.0
2017-Sep-21 04:58N 38°55' E 001°26'0 0.0
2017-Sep-21 04:28N 38°55' E 001°26'0 0.0
2017-Sep-21 03:58N 38°55' E 001°26'0 0.0
2017-Sep-21 03:22N 38°55' E 001°26'0 0.0
2017-Sep-21 02:58N 38°55' E 001°26'0 0.0
2017-Sep-21 02:28N 38°55' E 001°26'0 0.0
2017-Sep-21 01:59N 38°55' E 001°26'0 0.0
2017-Sep-21 01:28N 38°55' E 001°26'0 0.0
2017-Sep-21 00:58N 38°55' E 001°26'0 0.0
2017-Sep-21 00:25N 38°55' E 001°26'0 0.0
2017-Sep-20 23:58N 38°55' E 001°26'0 0.0
2017-Sep-20 23:28N 38°55' E 001°26'0 0.0
2017-Sep-20 22:58N 38°55' E 001°26'0 0.0
2017-Sep-20 22:28N 38°55' E 001°26'0 0.0
2017-Sep-20 21:55N 38°55' E 001°26'0 0.0
2017-Sep-20 21:22N 38°55' E 001°26'0 0.0
2017-Sep-20 20:58N 38°55' E 001°26'0 0.0
2017-Sep-20 20:22N 38°55' E 001°26'0 0.0
2017-Sep-20 19:55N 38°55' E 001°26'0 0.0
2017-Sep-20 19:28N 38°55' E 001°26'0 0.0
2017-Sep-20 18:58N 38°55' E 001°26'0 0.0
2017-Sep-20 18:28N 38°55' E 001°26'0 0.0
2017-Sep-20 17:58N 38°55' E 001°26'0 0.0
2017-Sep-20 17:28N 38°55' E 001°26'0 0.0
2017-Sep-20 16:58N 38°55' E 001°26'0 0.0
2017-Sep-20 16:25N 38°55' E 001°26'0 0.0
2017-Sep-20 15:52N 38°55' E 001°26'0 0.2
2017-Sep-20 15:29N 38°55' E 001°26'1 1.6
2017-Sep-20 14:59N 38°54' E 001°26'4 4.1
2017-Sep-20 14:00N 38°50' E 001°26'  
Track history (hours):
 
Tides and Currents Weather Stations Pressure Air Temp Water Temp Dewpoint Dewpoint Depression Visibility Wind Speed Wind Dir Waves Ship Positions

Lady Lara

Last reported at 2017-Sep-28 04:03 UTC. Time now 2017-Oct-18 09:41 UTC.
Position N 41°02' E 002°10'.
Warning: this ship's position is 20 days out of date.

Length 91 m; draft 4 m.

Type: Pleasure craft. MMSI: 319082300.

Date/timePositionNaut miles runAvg speedWind from/ knotsBaromVisibWave heightAir tempDewpointWater temp
2017-Sep-28 04:03N 41°02' E 002°10'111.5
2017-Sep-28 03:57N 41°01' E 002°09'511.4
2017-Sep-28 03:30N 40°56' E 002°08'611.7
2017-Sep-28 03:00N 40°50' E 002°07'611.6
2017-Sep-28 02:30N 40°44' E 002°05'612.2
2017-Sep-28 02:00N 40°38' E 002°04'612.7
2017-Sep-28 01:30N 40°32' E 002°02'612.8
2017-Sep-28 01:00N 40°26' E 002°01'612.8
2017-Sep-28 00:30N 40°19' E 001°59'612.4
2017-Sep-28 00:00N 40°13' E 001°58'612.3
2017-Sep-27 23:30N 40°07' E 001°56'612.4
2017-Sep-27 23:00N 40°01' E 001°55'612.7
2017-Sep-27 22:30N 39°55' E 001°53'612.5
2017-Sep-27 22:00N 39°49' E 001°52'612.3
2017-Sep-27 21:30N 39°42' E 001°50'612.5
2017-Sep-27 20:59N 39°36' E 001°49'612.5
2017-Sep-27 20:30N 39°30' E 001°47'712.4
2017-Sep-27 19:54N 39°23' E 001°46'512.6
2017-Sep-27 19:29N 39°18' E 001°45'612.6
2017-Sep-27 19:00N 39°12' E 001°43'612.6
2017-Sep-27 18:30N 39°06' E 001°42'612.1
2017-Sep-27 18:00N 38°60' E 001°39'612.6
2017-Sep-27 17:30N 38°56' E 001°33'5 9.6
2017-Sep-27 17:00N 38°54' E 001°27'0 0.8
2017-Sep-27 16:29N 38°55' E 001°26'0 0.0
2017-Sep-27 15:59N 38°55' E 001°26'0 0.0
2017-Sep-27 15:26N 38°55' E 001°26'0 0.0
2017-Sep-27 14:59N 38°55' E 001°26'0 0.0
2017-Sep-27 14:26N 38°55' E 001°26'0 0.0
2017-Sep-27 13:47N 38°55' E 001°26'0 0.0
2017-Sep-27 13:29N 38°55' E 001°26'0 0.0
2017-Sep-27 12:59N 38°55' E 001°26'0 0.0
2017-Sep-27 12:26N 38°55' E 001°26'0 0.0
2017-Sep-27 11:59N 38°55' E 001°26'0 0.0
2017-Sep-27 11:29N 38°55' E 001°26'0 0.0
2017-Sep-27 10:59N 38°55' E 001°26'0 0.0
2017-Sep-27 10:29N 38°55' E 001°26'0 0.0
2017-Sep-27 09:59N 38°55' E 001°26'0 0.0
2017-Sep-27 09:26N 38°55' E 001°26'0 0.0
2017-Sep-27 08:56N 38°55' E 001°26'0 0.0
2017-Sep-27 08:29N 38°55' E 001°26'0 0.0
2017-Sep-27 07:56N 38°55' E 001°26'0 0.0
2017-Sep-27 07:29N 38°55' E 001°26'0 0.0
2017-Sep-27 06:59N 38°55' E 001°26'0 0.0
2017-Sep-27 06:26N 38°55' E 001°26'0 0.0
2017-Sep-27 05:56N 38°55' E 001°26'0 0.0
2017-Sep-27 05:29N 38°55' E 001°26'0 0.0
2017-Sep-27 04:56N 38°55' E 001°26'0 0.0
2017-Sep-27 04:29N 38°55' E 001°26'0 0.0
2017-Sep-27 03:59N 38°55' E 001°26'0 0.0
2017-Sep-27 03:26N 38°55' E 001°26'0 0.0
2017-Sep-27 02:59N 38°55' E 001°26'0 0.0
2017-Sep-27 02:29N 38°55' E 001°26'0 0.0
2017-Sep-27 01:59N 38°55' E 001°26'0 0.0
2017-Sep-27 01:29N 38°55' E 001°26'0 0.0
2017-Sep-27 00:56N 38°55' E 001°26'0 0.0
2017-Sep-27 00:26N 38°55' E 001°26'0 0.0
2017-Sep-26 23:59N 38°55' E 001°26'0 0.0
2017-Sep-26 23:29N 38°55' E 001°26'0 0.0
2017-Sep-26 22:56N 38°55' E 001°26'0 0.0
2017-Sep-26 22:29N 38°55' E 001°26'0 0.0
2017-Sep-26 21:59N 38°55' E 001°26'0 0.0
2017-Sep-26 21:29N 38°55' E 001°26'0 0.1
2017-Sep-26 20:59N 38°55' E 001°26'2 4.5
2017-Sep-26 20:30N 38°53' E 001°27'8 2.9
2017-Sep-26 17:55N 38°45' E 001°26'0 0.0
2017-Sep-26 11:38N 38°45' E 001°26'0 0.2
2017-Sep-26 11:20N 38°45' E 001°26'4 7.9
2017-Sep-26 10:50N 38°49' E 001°26'512.3
2017-Sep-26 10:27N 38°53' E 001°28'2 3.6
2017-Sep-26 09:59N 38°55' E 001°26'0 0.0
2017-Sep-26 09:29N 38°55' E 001°26'0 0.0
2017-Sep-26 08:53N 38°55' E 001°26'0 0.0
2017-Sep-26 08:29N 38°55' E 001°26'0 0.0
2017-Sep-26 07:59N 38°55' E 001°26'0 0.0
2017-Sep-26 07:29N 38°55' E 001°26'0 0.0
2017-Sep-26 06:59N 38°55' E 001°26'0 0.0
2017-Sep-26 06:26N 38°55' E 001°26'0 0.0
2017-Sep-26 05:59N 38°55' E 001°26'0 0.0
2017-Sep-26 05:29N 38°55' E 001°26'0 0.0
2017-Sep-26 04:59N 38°55' E 001°26'0 0.0
2017-Sep-26 04:29N 38°55' E 001°26'0 0.0
2017-Sep-26 03:59N 38°55' E 001°26'0 0.0
2017-Sep-26 03:29N 38°55' E 001°26'0 0.0
2017-Sep-26 02:56N 38°55' E 001°26'0 0.0
2017-Sep-26 02:23N 38°55' E 001°26'0 0.0
2017-Sep-26 01:59N 38°55' E 001°26'0 0.0
2017-Sep-26 01:29N 38°55' E 001°26'0 0.0
2017-Sep-26 00:56N 38°55' E 001°26'0 0.0
2017-Sep-26 00:29N 38°55' E 001°26'0 0.0
2017-Sep-25 23:59N 38°55' E 001°26'0 0.0
2017-Sep-25 23:29N 38°55' E 001°26'0 0.0
2017-Sep-25 22:59N 38°55' E 001°26'0 0.0
2017-Sep-25 22:23N 38°55' E 001°26'0 0.0
2017-Sep-25 21:59N 38°55' E 001°26'0 0.0
2017-Sep-25 21:29N 38°55' E 001°26'0 0.0
2017-Sep-25 20:59N 38°55' E 001°26'0 0.0
2017-Sep-25 20:29N 38°55' E 001°26'0 0.0
2017-Sep-25 19:59N 38°55' E 001°26'0 0.0
2017-Sep-25 19:29N 38°55' E 001°26'0 0.0
2017-Sep-25 18:59N 38°55' E 001°26'0 0.0
2017-Sep-25 18:29N 38°55' E 001°26'0 0.0
2017-Sep-25 17:59N 38°55' E 001°26'0 0.0
2017-Sep-25 17:23N 38°55' E 001°26'0 0.0
2017-Sep-25 16:59N 38°55' E 001°26'0 0.0
2017-Sep-25 16:23N 38°55' E 001°26'0 0.0
2017-Sep-25 15:59N 38°55' E 001°26'0 0.0
2017-Sep-25 12:29N 38°55' E 001°26'0 0.0
2017-Sep-25 11:59N 38°55' E 001°26'0 0.0
2017-Sep-25 11:29N 38°55' E 001°26'0 0.0
2017-Sep-25 10:59N 38°55' E 001°26'0 0.0
2017-Sep-25 10:29N 38°55' E 001°26'0 0.0
2017-Sep-25 10:00N 38°55' E 001°26'0 0.6
2017-Sep-25 09:30N 38°55' E 001°27'510.5
2017-Sep-25 09:00N 38°49' E 001°26'612.0
2017-Sep-25 08:30N 38°51' E 001°18'1 1.3
2017-Sep-25 07:52N 38°52' E 001°19'0 0.0
2017-Sep-25 07:28N 38°52' E 001°19'0 0.0
2017-Sep-25 06:10N 38°52' E 001°19'0 0.0
2017-Sep-25 05:52N 38°52' E 001°19'0 0.0
2017-Sep-25 03:16N 38°52' E 001°19'0 0.0
2017-Sep-25 02:52N 38°52' E 001°19'0 0.0
2017-Sep-24 18:04N 38°52' E 001°19'0 0.5
2017-Sep-24 18:00N 38°52' E 001°19'3 6.8
2017-Sep-24 17:29N 38°49' E 001°22'1 2.1
2017-Sep-24 17:00N 38°50' E 001°23'0 0.0
2017-Sep-24 16:30N 38°50' E 001°23'0 0.0
2017-Sep-24 16:00N 38°50' E 001°23'0 0.0
2017-Sep-24 15:30N 38°50' E 001°23'0 0.0
2017-Sep-24 15:01N 38°50' E 001°23'0 0.0
2017-Sep-24 14:30N 38°50' E 001°23'0 0.0
2017-Sep-24 13:58N 38°50' E 001°23'0 0.0
2017-Sep-24 13:29N 38°50' E 001°23'0 0.0
2017-Sep-24 13:01N 38°50' E 001°23'0 0.0
2017-Sep-24 12:30N 38°50' E 001°23'0 0.0
2017-Sep-24 12:01N 38°50' E 001°23'0 0.0
2017-Sep-24 11:30N 38°50' E 001°23'0 0.0
2017-Sep-24 11:01N 38°50' E 001°23'0 0.0
2017-Sep-24 10:30N 38°50' E 001°23'0 0.0
2017-Sep-24 10:00N 38°50' E 001°23'0 0.0
2017-Sep-24 09:31N 38°50' E 001°23'0 0.0
2017-Sep-24 09:00N 38°50' E 001°23'2 4.3
2017-Sep-24 08:30N 38°49' E 001°25'510.3
2017-Sep-24 08:00N 38°54' E 001°27'1 1.7
2017-Sep-24 07:28N 38°55' E 001°26'0 0.0
2017-Sep-24 06:55N 38°55' E 001°26'0 0.0
2017-Sep-24 06:28N 38°55' E 001°26'0 0.0
2017-Sep-24 05:58N 38°55' E 001°26'0 0.0
2017-Sep-24 05:28N 38°55' E 001°26'0 0.0
2017-Sep-24 04:55N 38°55' E 001°26'0 0.0
2017-Sep-24 04:25N 38°55' E 001°26'0 0.0
2017-Sep-24 03:58N 38°55' E 001°26'0 0.0
2017-Sep-24 03:28N 38°55' E 001°26'0 0.0
2017-Sep-24 02:58N 38°55' E 001°26'0 0.0
2017-Sep-24 02:28N 38°55' E 001°26'0 0.0
2017-Sep-24 01:58N 38°55' E 001°26'0 0.0
2017-Sep-24 01:28N 38°55' E 001°26'0 0.0
2017-Sep-24 00:58N 38°55' E 001°26'0 0.0
2017-Sep-24 00:28N 38°55' E 001°26'0 0.0
2017-Sep-23 23:55N 38°55' E 001°26'0 0.0
2017-Sep-23 23:22N 38°55' E 001°26'0 0.0
2017-Sep-23 22:58N 38°55' E 001°26'0 0.0
2017-Sep-23 22:28N 38°55' E 001°26'0 0.0
2017-Sep-23 21:58N 38°55' E 001°26'0 0.0
2017-Sep-23 21:28N 38°55' E 001°26'0 0.0
2017-Sep-23 20:55N 38°55' E 001°26'0 0.0
2017-Sep-23 20:28N 38°55' E 001°26'0 0.0
2017-Sep-23 19:58N 38°55' E 001°26'0 0.0
2017-Sep-22 01:46N 38°55' E 001°26'0 0.0
2017-Sep-22 01:25N 38°55' E 001°26'0 0.0
2017-Sep-22 00:58N 38°55' E 001°26'0 0.0
2017-Sep-22 00:28N 38°55' E 001°26'0 0.0
2017-Sep-21 23:55N 38°55' E 001°26'0 0.0
2017-Sep-21 23:28N 38°55' E 001°26'0 0.0
2017-Sep-21 22:55N 38°55' E 001°26'0 0.0
2017-Sep-21 22:28N 38°55' E 001°26'0 0.0
2017-Sep-21 21:58N 38°55' E 001°26'0 0.0
2017-Sep-21 21:28N 38°55' E 001°26'0 0.0
2017-Sep-21 20:55N 38°55' E 001°26'0 0.0
2017-Sep-21 20:22N 38°55' E 001°26'0 0.0
2017-Sep-21 19:52N 38°55' E 001°26'0 0.0
2017-Sep-21 19:28N 38°55' E 001°26'0 0.0
2017-Sep-21 18:58N 38°55' E 001°26'0 0.0
2017-Sep-21 18:25N 38°55' E 001°26'0 0.0
2017-Sep-21 17:58N 38°55' E 001°26'0 0.0
2017-Sep-21 17:28N 38°55' E 001°26'0 0.0
2017-Sep-21 16:58N 38°55' E 001°26'0 0.0
2017-Sep-21 16:28N 38°55' E 001°26'0 0.0
2017-Sep-21 15:58N 38°55' E 001°26'0 0.0
2017-Sep-21 15:28N 38°55' E 001°26'0 0.0
2017-Sep-21 14:58N 38°55' E 001°26'0 0.0
2017-Sep-21 14:28N 38°55' E 001°26'0 0.0
2017-Sep-21 13:58N 38°55' E 001°26'0 0.0
2017-Sep-21 13:25N 38°55' E 001°26'0 0.0
2017-Sep-21 12:58N 38°55' E 001°26'0 0.0
2017-Sep-21 12:28N 38°55' E 001°26'0 0.0
2017-Sep-21 11:55N 38°55' E 001°26'0 0.0
2017-Sep-21 11:28N 38°55' E 001°26'0 0.0
2017-Sep-21 10:49N 38°55' E 001°26'0 0.0
2017-Sep-21 10:28N 38°55' E 001°26'0 0.0
2017-Sep-21 09:58N 38°55' E 001°26'0 0.0
2017-Sep-21 09:25N 38°55' E 001°26'0 0.0
2017-Sep-21 08:55N 38°55' E 001°26'0 0.0
2017-Sep-21 08:28N 38°55' E 001°26'0 0.0
2017-Sep-21 07:58N 38°55' E 001°26'0 0.0
2017-Sep-21 07:28N 38°55' E 001°26'0 0.0
2017-Sep-21 06:43N 38°55' E 001°26'0 0.0
2017-Sep-21 06:25N 38°55' E 001°26'0 0.0
2017-Sep-21 05:58N 38°55' E 001°26'0 0.0
2017-Sep-21 05:22N 38°55' E 001°26'0 0.0
2017-Sep-21 04:58N 38°55' E 001°26'0 0.0
2017-Sep-21 04:28N 38°55' E 001°26'0 0.0
2017-Sep-21 03:58N 38°55' E 001°26'0 0.0
2017-Sep-21 03:22N 38°55' E 001°26'0 0.0
2017-Sep-21 02:58N 38°55' E 001°26'0 0.0
2017-Sep-21 02:28N 38°55' E 001°26'0 0.0
2017-Sep-21 01:59N 38°55' E 001°26'0 0.0
2017-Sep-21 01:28N 38°55' E 001°26'0 0.0
2017-Sep-21 00:58N 38°55' E 001°26'0 0.0
2017-Sep-21 00:25N 38°55' E 001°26'0 0.0
2017-Sep-20 23:58N 38°55' E 001°26'0 0.0
2017-Sep-20 23:28N 38°55' E 001°26'0 0.0
2017-Sep-20 22:58N 38°55' E 001°26'0 0.0
2017-Sep-20 22:28N 38°55' E 001°26'0 0.0
2017-Sep-20 21:55N 38°55' E 001°26'0 0.0
2017-Sep-20 21:22N 38°55' E 001°26'0 0.0
2017-Sep-20 20:58N 38°55' E 001°26'0 0.0
2017-Sep-20 20:22N 38°55' E 001°26'0 0.0
2017-Sep-20 19:55N 38°55' E 001°26'0 0.0
2017-Sep-20 19:28N 38°55' E 001°26'0 0.0
2017-Sep-20 18:58N 38°55' E 001°26'0 0.0
2017-Sep-20 18:28N 38°55' E 001°26'0 0.0
2017-Sep-20 17:58N 38°55' E 001°26'0 0.0
2017-Sep-20 17:28N 38°55' E 001°26'0 0.0
2017-Sep-20 16:58N 38°55' E 001°26'0 0.0
2017-Sep-20 16:25N 38°55' E 001°26'0 0.0
2017-Sep-20 15:52N 38°55' E 001°26'0 0.2
2017-Sep-20 15:29N 38°55' E 001°26'1 1.6
2017-Sep-20 14:59N 38°54' E 001°26'4 4.1
2017-Sep-20 14:00N 38°50' E 001°26'  

Dump ship's entire track history